createdAt,value
2023-06-25T00:00:20.116Z,4.07
2023-06-25T00:02:21.836Z,3.97
2023-06-25T00:04:23.473Z,4.15
2023-06-25T00:06:25.071Z,4.00
2023-06-25T00:08:26.641Z,4.15
2023-06-25T00:10:28.237Z,4.65
2023-06-25T00:12:29.865Z,4.32
2023-06-25T00:14:31.694Z,4.70
2023-06-25T00:16:34.415Z,4.65
2023-06-25T00:18:36.008Z,4.30
2023-06-25T00:20:37.913Z,4.30
2023-06-25T00:22:41.055Z,4.45
2023-06-25T00:24:45.321Z,4.50
2023-06-25T00:26:47.659Z,4.25
2023-06-25T00:28:49.233Z,4.25
2023-06-25T00:30:50.854Z,4.60
2023-06-25T00:32:55.750Z,4.78
2023-06-25T00:34:59.324Z,4.90
2023-06-25T00:37:00.882Z,4.70
2023-06-25T00:39:06.279Z,4.30
2023-06-25T00:41:10.132Z,4.80
2023-06-25T00:43:11.702Z,4.78
2023-06-25T00:45:14.461Z,4.53
2023-06-25T00:47:18.215Z,4.55
2023-06-25T00:49:19.898Z,4.82
2023-06-25T00:51:29.291Z,4.82
2023-06-25T00:53:37.748Z,5.15
2023-06-25T00:55:39.979Z,5.43
2023-06-25T00:57:45.507Z,5.13
2023-06-25T00:59:49.379Z,5.47
2023-06-25T01:01:59.368Z,5.25
2023-06-25T01:04:07.273Z,5.07
2023-06-25T01:06:22.554Z,5.07
2023-06-25T01:08:29.732Z,5.30
2023-06-25T01:13:02.635Z,5.38
2023-06-25T01:15:05.416Z,5.13
2023-06-25T01:17:07.157Z,4.90
2023-06-25T01:19:08.909Z,5.25
2023-06-25T01:21:11.425Z,5.53
2023-06-25T01:23:14.125Z,5.60
2023-06-25T01:25:15.919Z,5.30
2023-06-25T01:27:17.488Z,5.50
2023-06-25T01:29:19.110Z,5.22
2023-06-25T01:31:20.679Z,6.07
2023-06-25T01:33:23.552Z,5.00
2023-06-25T01:35:25.986Z,4.85
2023-06-25T01:37:32.116Z,5.47
2023-06-25T01:39:33.996Z,5.15
2023-06-25T01:41:35.600Z,5.10
2023-06-25T01:43:37.144Z,4.97
2023-06-25T01:45:39.039Z,5.28
2023-06-25T01:47:42.692Z,4.95
2023-06-25T01:49:44.359Z,4.80
2023-06-25T01:51:46.160Z,5.15
2023-06-25T01:53:47.857Z,4.28
2023-06-25T01:55:49.399Z,5.43
2023-06-25T01:57:51.036Z,5.38
2023-06-25T01:59:52.655Z,5.13
2023-06-25T02:01:55.040Z,4.72
2023-06-25T02:03:57.081Z,5.22
2023-06-25T02:05:58.705Z,5.03
2023-06-25T02:08:00.419Z,5.10
2023-06-25T02:10:02.186Z,5.63
2023-06-25T02:12:04.094Z,5.00
2023-06-25T02:14:07.060Z,5.20
2023-06-25T02:16:11.326Z,4.80
2023-06-25T02:18:12.878Z,5.43
2023-06-25T02:20:15.080Z,5.05
2023-06-25T02:22:16.701Z,5.07
2023-06-25T02:24:18.345Z,5.60
2023-06-25T02:26:19.940Z,5.20
2023-06-25T02:28:21.760Z,5.25
2023-06-25T02:30:23.320Z,4.72
2023-06-25T02:32:24.885Z,5.03
2023-06-25T02:34:26.496Z,5.07
2023-06-25T02:36:28.130Z,5.50
2023-06-25T02:38:29.705Z,5.10
2023-06-25T02:40:31.283Z,5.63
2023-06-25T02:42:32.961Z,5.20
2023-06-25T02:44:35.097Z,5.20
2023-06-25T02:46:37.359Z,5.40
2023-06-25T02:48:39.635Z,5.68
2023-06-25T02:50:41.339Z,5.22
2023-06-25T02:52:43.562Z,5.28
2023-06-25T02:54:45.176Z,5.15
2023-06-25T02:56:47.748Z,5.53
2023-06-25T02:58:49.512Z,5.20
2023-06-25T03:00:51.300Z,5.25
2023-06-25T03:02:53.047Z,5.30
2023-06-25T03:04:54.644Z,5.45
2023-06-25T03:06:56.209Z,5.43
2023-06-25T03:09:00.469Z,5.40
2023-06-25T03:11:02.022Z,5.65
2023-06-25T03:13:03.736Z,5.30
2023-06-25T03:15:05.773Z,4.97
2023-06-25T03:17:07.372Z,5.45
2023-06-25T03:19:08.982Z,5.15
2023-06-25T03:21:10.570Z,5.22
2023-06-25T03:23:12.221Z,5.25
2023-06-25T03:25:13.956Z,4.82
2023-06-25T03:27:15.609Z,5.72
2023-06-25T03:29:17.427Z,5.43
2023-06-25T03:31:19.038Z,5.10
2023-06-25T03:33:20.717Z,5.05
2023-06-25T03:35:22.305Z,5.82
2023-06-25T03:37:24.797Z,4.95
2023-06-25T03:39:26.403Z,5.00
2023-06-25T03:41:27.963Z,5.10
2023-06-25T03:43:29.614Z,5.03
2023-06-25T03:45:31.214Z,5.15
2023-06-25T03:47:32.846Z,4.85
2023-06-25T03:49:34.465Z,5.22
2023-06-25T03:51:36.147Z,5.93
2023-06-25T03:53:40.579Z,5.47
2023-06-25T03:55:42.165Z,5.88
2023-06-25T03:57:43.752Z,5.28
2023-06-25T03:59:45.380Z,5.13
2023-06-25T04:01:46.951Z,5.03
2023-06-25T04:03:48.692Z,5.45
2023-06-25T04:05:50.479Z,5.15
2023-06-25T04:07:52.108Z,5.68
2023-06-25T04:09:53.682Z,6.22
2023-06-25T04:11:55.348Z,5.93
2023-06-25T04:13:56.941Z,5.65
2023-06-25T04:15:58.535Z,5.20
2023-06-25T04:18:00.288Z,5.18
2023-06-25T04:20:01.938Z,5.97
2023-06-25T04:22:03.641Z,5.70
2023-06-25T04:24:05.485Z,5.43
2023-06-25T04:26:07.074Z,5.35
2023-06-25T04:28:15.349Z,5.88
2023-06-25T04:30:17.033Z,5.88
2023-06-25T04:32:18.755Z,5.82
2023-06-25T04:34:20.314Z,5.47
2023-06-25T04:36:21.925Z,4.82
2023-06-25T04:38:23.500Z,5.03
2023-06-25T04:40:25.145Z,5.15
2023-06-25T04:42:26.767Z,5.28
2023-06-25T04:44:28.366Z,4.63
2023-06-25T04:46:30.061Z,4.65
2023-06-25T04:48:31.689Z,4.72
2023-06-25T04:50:33.264Z,4.38
2023-06-25T04:52:34.855Z,5.20
2023-06-25T04:54:36.540Z,4.72
2023-06-25T04:56:38.328Z,4.88
2023-06-25T04:58:39.953Z,4.78
2023-06-25T05:00:41.535Z,4.20
2023-06-25T05:02:43.122Z,4.97
2023-06-25T05:04:46.881Z,4.43
2023-06-25T05:06:48.819Z,5.28
2023-06-25T05:08:50.464Z,5.50
2023-06-25T05:10:52.109Z,4.63
2023-06-25T05:12:53.713Z,5.45
2023-06-25T05:14:55.324Z,4.95
2023-06-25T05:16:57.086Z,5.57
2023-06-25T05:18:58.725Z,5.80
2023-06-25T05:21:00.320Z,5.75
2023-06-25T05:23:02.104Z,5.40
2023-06-25T05:25:04.431Z,5.75
2023-06-25T05:27:06.740Z,5.50
2023-06-25T05:29:08.573Z,5.22
2023-06-25T05:31:10.223Z,5.55
2023-06-25T05:33:11.910Z,5.03
2023-06-25T05:35:13.546Z,5.43
2023-06-25T05:37:20.413Z,5.60
2023-06-25T05:39:21.978Z,4.88
2023-06-25T05:41:23.675Z,5.53
2023-06-25T05:43:25.385Z,5.30
2023-06-25T05:45:26.990Z,4.97
2023-06-25T05:47:28.567Z,5.18
2023-06-25T05:49:30.194Z,12.10
2023-06-25T05:51:31.828Z,5.75
2023-06-25T05:53:41.543Z,5.25
2023-06-25T05:55:43.994Z,4.97
2023-06-25T05:57:45.572Z,5.55
2023-06-25T05:59:47.190Z,5.18
2023-06-25T06:01:48.940Z,5.47
2023-06-25T06:03:50.583Z,5.13
2023-06-25T06:05:52.211Z,4.97
2023-06-25T06:07:53.787Z,4.95
2023-06-25T06:09:55.415Z,4.93
2023-06-25T06:11:57.028Z,5.68
2023-06-25T06:13:58.634Z,5.20
2023-06-25T06:16:00.503Z,5.13
2023-06-25T06:18:04.759Z,5.25
2023-06-25T06:20:06.821Z,5.93
2023-06-25T06:22:08.560Z,5.32
2023-06-25T06:24:10.098Z,5.43
2023-06-25T06:26:14.181Z,5.07
2023-06-25T06:28:15.954Z,4.78
2023-06-25T06:30:17.538Z,5.40
2023-06-25T06:32:19.112Z,4.90
2023-06-25T06:34:20.700Z,4.35
2023-06-25T06:36:22.306Z,5.05
2023-06-25T06:38:23.878Z,5.20
2023-06-25T06:40:25.520Z,5.63
2023-06-25T06:42:27.110Z,5.32
2023-06-25T06:44:28.719Z,4.97
2023-06-25T06:46:30.323Z,4.90
2023-06-25T06:48:31.927Z,4.50
2023-06-25T06:50:33.504Z,4.68
2023-06-25T06:52:35.112Z,4.72
2023-06-25T06:54:36.692Z,4.97
2023-06-25T06:56:39.782Z,5.13
2023-06-25T06:58:41.387Z,4.78
2023-06-25T07:00:43.011Z,4.90
2023-06-25T07:02:45.068Z,4.43
2023-06-25T07:04:46.875Z,5.00
2023-06-25T07:06:48.606Z,4.43
2023-06-25T07:08:50.207Z,4.80
2023-06-25T07:10:52.019Z,4.65
2023-06-25T07:12:53.581Z,4.47
2023-06-25T07:14:55.217Z,5.05
2023-06-25T07:16:57.199Z,4.78
2023-06-25T07:18:58.811Z,5.00
2023-06-25T07:21:00.470Z,3.97
2023-06-25T07:23:02.041Z,4.78
2023-06-25T07:25:03.951Z,4.75
2023-06-25T07:27:06.051Z,4.32
2023-06-25T07:29:08.447Z,4.40
2023-06-25T07:31:10.051Z,4.53
2023-06-25T07:33:11.766Z,4.35
2023-06-25T07:35:13.971Z,4.15
2023-06-25T07:37:15.724Z,4.65
2023-06-25T07:39:31.130Z,4.35
2023-06-25T07:41:32.986Z,5.15
2023-06-25T07:43:34.562Z,4.38
2023-06-25T07:45:36.685Z,4.22
2023-06-25T07:47:38.747Z,4.40
2023-06-25T07:49:40.339Z,4.43
2023-06-25T07:51:45.437Z,4.30
2023-06-25T07:53:47.046Z,4.32
2023-06-25T07:56:01.903Z,4.30
2023-06-25T07:58:06.142Z,4.15
2023-06-25T08:00:08.370Z,4.32
2023-06-25T08:02:09.952Z,4.20
2023-06-25T08:04:12.200Z,4.03
2023-06-25T08:06:13.945Z,4.55
2023-06-25T08:08:15.515Z,4.70
2023-06-25T08:10:17.128Z,4.35
2023-06-25T08:12:18.721Z,4.22
2023-06-25T08:14:20.320Z,4.55
2023-06-25T08:16:23.443Z,4.70
2023-06-25T08:18:24.980Z,4.53
2023-06-25T08:20:26.564Z,4.45
2023-06-25T08:22:28.244Z,4.40
2023-06-25T08:24:29.841Z,4.78
2023-06-25T08:26:31.575Z,4.60
2023-06-25T08:28:33.541Z,4.60
2023-06-25T08:30:35.136Z,8.70
2023-06-25T08:32:36.742Z,10.27
2023-06-25T08:34:39.238Z,4.68
2023-06-25T08:36:40.872Z,5.78
2023-06-25T08:38:42.458Z,4.85
2023-06-25T08:40:47.195Z,5.07
2023-06-25T08:42:51.403Z,4.85
2023-06-25T08:44:53.268Z,4.32
2023-06-25T08:46:55.874Z,4.20
2023-06-25T08:48:59.102Z,4.22
2023-06-25T08:51:07.919Z,4.35
2023-06-25T08:53:09.913Z,3.70
2023-06-25T08:55:13.552Z,4.05
2023-06-25T08:57:15.446Z,4.07
2023-06-25T08:59:17.213Z,3.83
2023-06-25T09:01:19.624Z,4.20
2023-06-25T09:03:21.502Z,4.20
2023-06-25T09:05:28.404Z,4.20
2023-06-25T09:07:30.066Z,4.05
2023-06-25T09:09:31.653Z,3.70
2023-06-25T09:11:33.412Z,4.43
2023-06-25T09:13:35.015Z,4.43
2023-06-25T09:15:42.512Z,3.90
2023-06-25T09:17:44.157Z,4.05
2023-06-25T09:19:46.487Z,4.07
2023-06-25T09:21:49.393Z,3.38
2023-06-25T09:23:54.807Z,3.65
2023-06-25T09:25:57.293Z,4.22
2023-06-25T09:28:01.949Z,4.15
2023-06-25T09:30:03.852Z,4.20
2023-06-25T09:32:09.333Z,3.75
2023-06-25T09:34:16.217Z,4.40
2023-06-25T09:36:31.826Z,3.90
2023-06-25T09:38:45.635Z,3.90
2023-06-25T09:40:47.310Z,3.90
2023-06-25T09:42:54.335Z,3.78
2023-06-25T09:44:56.049Z,3.67
2023-06-25T09:47:07.120Z,4.18
2023-06-25T09:49:08.826Z,4.13
2023-06-25T09:51:13.713Z,4.00
2023-06-25T09:53:20.238Z,4.07
2023-06-25T09:55:22.446Z,3.95
2023-06-25T09:57:27.143Z,3.80
2023-06-25T09:59:28.935Z,3.75
2023-06-25T10:01:30.788Z,3.83
2023-06-25T10:03:32.834Z,3.85
2023-06-25T10:05:35.267Z,4.07
2023-06-25T10:07:37.422Z,3.78
2023-06-25T10:09:39.068Z,3.80
2023-06-25T10:12:11.289Z,3.75
2023-06-25T10:14:15.107Z,4.22
2023-06-25T10:16:26.499Z,3.53
2023-06-25T10:18:53.624Z,4.43
2023-06-25T10:20:59.588Z,4.60
2023-06-25T10:23:12.356Z,3.90
2023-06-25T10:25:28.171Z,3.92
2023-06-25T10:27:30.897Z,3.85
2023-06-25T10:29:42.662Z,4.72
2023-06-25T10:31:46.263Z,3.47
2023-06-25T10:33:48.285Z,4.22
2023-06-25T10:35:56.873Z,4.10
2023-06-25T10:37:58.472Z,4.15
2023-06-25T10:40:08.352Z,3.95
2023-06-25T10:42:10.106Z,3.70
2023-06-25T10:44:11.704Z,4.32
2023-06-25T10:46:13.292Z,3.88
2023-06-25T10:48:14.942Z,3.97
2023-06-25T10:50:18.076Z,4.22
2023-06-25T10:52:19.834Z,3.72
2023-06-25T10:54:22.494Z,3.60
2023-06-25T10:56:24.731Z,4.10
2023-06-25T10:58:26.404Z,3.63
2023-06-25T11:00:31.016Z,3.92
2023-06-25T11:02:32.759Z,3.65
2023-06-25T11:04:34.471Z,4.10
2023-06-25T11:06:39.053Z,3.80
2023-06-25T11:08:43.889Z,3.75
2023-06-25T11:10:45.798Z,4.05
2023-06-25T11:12:47.382Z,3.83
2023-06-25T11:14:51.131Z,3.90
2023-06-25T11:16:52.702Z,3.80
2023-06-25T11:18:54.411Z,3.90
2023-06-25T11:20:58.996Z,3.90
2023-06-25T11:23:02.710Z,3.80
2023-06-25T11:25:07.573Z,3.35
2023-06-25T11:27:09.251Z,3.63
2023-06-25T11:29:12.084Z,3.65
2023-06-25T11:31:17.800Z,3.97
2023-06-25T11:33:19.626Z,3.63
2023-06-25T11:35:25.373Z,4.10
2023-06-25T11:37:30.164Z,3.83
2023-06-25T11:39:31.709Z,4.03
2023-06-25T11:41:35.609Z,3.95
2023-06-25T11:43:37.300Z,3.83
2023-06-25T11:45:41.493Z,3.70
2023-06-25T11:47:47.679Z,4.03
2023-06-25T11:51:58.882Z,4.03
2023-06-25T11:54:00.504Z,3.95
2023-06-25T11:56:02.372Z,3.65
2023-06-25T11:58:04.193Z,4.00
2023-06-25T12:00:06.750Z,3.53
2023-06-25T12:02:08.421Z,3.60
2023-06-25T12:04:10.385Z,3.50
2023-06-25T12:06:12.048Z,3.72
2023-06-25T12:08:13.645Z,3.65
2023-06-25T12:10:15.312Z,3.28
2023-06-25T12:12:16.955Z,3.70
2023-06-25T12:14:18.563Z,3.90
2023-06-25T12:16:20.623Z,3.42
2023-06-25T12:18:23.432Z,3.80
2023-06-25T12:20:25.011Z,3.70
2023-06-25T12:22:26.569Z,3.75
2023-06-25T12:24:28.280Z,3.47
2023-06-25T12:26:29.845Z,3.65
2023-06-25T12:28:31.493Z,3.88
2023-06-25T12:30:33.464Z,3.35
2023-06-25T12:32:36.398Z,3.53
2023-06-25T12:34:38.098Z,3.97
2023-06-25T12:36:39.674Z,3.85
2023-06-25T12:38:41.238Z,3.70
2023-06-25T12:40:43.059Z,3.67
2023-06-25T12:42:44.785Z,3.90
2023-06-25T12:44:46.347Z,3.40
2023-06-25T12:46:47.947Z,3.92
2023-06-25T12:48:49.570Z,3.72
2023-06-25T12:50:51.263Z,3.58
2023-06-25T12:52:53.182Z,4.10
2023-06-25T12:54:55.569Z,3.53
2023-06-25T12:56:57.126Z,3.85
2023-06-25T12:58:58.729Z,4.00
2023-06-25T13:01:07.481Z,3.80
2023-06-25T13:03:09.853Z,3.63
2023-06-25T13:05:11.559Z,4.28
2023-06-25T13:07:13.143Z,3.97
2023-06-25T13:09:14.799Z,3.80
2023-06-25T13:11:16.476Z,3.60
2023-06-25T13:13:18.066Z,3.90
2023-06-25T13:15:19.856Z,3.33
2023-06-25T13:17:21.448Z,4.07
2023-06-25T13:19:23.091Z,3.60
2023-06-25T13:21:24.695Z,3.67
2023-06-25T13:23:26.263Z,3.63
2023-06-25T13:25:27.934Z,4.00
2023-06-25T13:27:29.579Z,3.78
2023-06-25T13:29:31.210Z,3.45
2023-06-25T13:31:32.942Z,3.70
2023-06-25T13:33:34.672Z,3.58
2023-06-25T13:35:36.401Z,3.72
2023-06-25T13:37:38.300Z,3.60
2023-06-25T13:39:39.893Z,3.50
2023-06-25T13:41:41.500Z,3.78
2023-06-25T13:43:45.065Z,3.47
2023-06-25T13:45:46.691Z,3.33
2023-06-25T13:47:48.316Z,3.58
2023-06-25T13:49:49.917Z,3.45
2023-06-25T13:51:51.559Z,3.40
2023-06-25T13:53:53.235Z,3.70
2023-06-25T13:55:54.937Z,3.45
2023-06-25T13:57:56.655Z,3.63
2023-06-25T13:59:58.233Z,3.78
2023-06-25T14:01:59.838Z,3.15
2023-06-25T14:04:01.684Z,3.50
2023-06-25T14:06:03.460Z,3.28
2023-06-25T14:08:06.744Z,3.40
2023-06-25T14:10:09.223Z,3.70
2023-06-25T14:12:10.916Z,3.63
2023-06-25T14:14:12.642Z,3.63
2023-06-25T14:16:16.349Z,3.53
2023-06-25T14:18:18.088Z,3.60
2023-06-25T14:20:20.001Z,3.50
2023-06-25T14:22:22.723Z,3.75
2023-06-25T14:24:24.327Z,3.40
2023-06-25T14:26:25.913Z,3.50
2023-06-25T14:28:30.791Z,3.42
2023-06-25T14:30:35.015Z,3.70
2023-06-25T14:32:36.677Z,3.20
2023-06-25T14:34:38.339Z,3.20
2023-06-25T14:36:39.990Z,3.28
2023-06-25T14:38:42.677Z,3.78
2023-06-25T14:40:44.282Z,3.40
2023-06-25T14:42:45.855Z,3.50
2023-06-25T14:44:47.457Z,3.30
2023-06-25T14:46:50.680Z,3.50
2023-06-25T14:48:52.366Z,3.40
2023-06-25T14:50:54.028Z,3.25
2023-06-25T14:52:55.721Z,3.30
2023-06-25T14:54:57.297Z,3.55
2023-06-25T14:56:58.998Z,3.35
2023-06-25T14:59:00.585Z,3.50
2023-06-25T15:01:02.326Z,3.13
2023-06-25T15:03:05.417Z,3.60
2023-06-25T15:05:07.716Z,3.35
2023-06-25T15:07:09.375Z,3.70
2023-06-25T15:09:12.389Z,3.28
2023-06-25T15:11:14.107Z,3.33
2023-06-25T15:13:16.949Z,3.55
2023-06-25T15:15:18.512Z,3.50
2023-06-25T15:17:20.110Z,3.15
2023-06-25T15:19:21.658Z,3.28
2023-06-25T15:21:23.309Z,3.22
2023-06-25T15:23:25.050Z,3.20
2023-06-25T15:25:26.637Z,3.00
2023-06-25T15:27:28.221Z,3.20
2023-06-25T15:29:32.865Z,3.22
2023-06-25T15:31:34.593Z,3.42
2023-06-25T15:33:36.216Z,3.38
2023-06-25T15:35:37.830Z,3.40
2023-06-25T15:37:39.425Z,3.08
2023-06-25T15:39:41.064Z,3.03
2023-06-25T15:41:43.297Z,3.30
2023-06-25T15:43:44.862Z,3.33
2023-06-25T15:45:48.508Z,3.03
2023-06-25T15:47:50.176Z,3.03
2023-06-25T15:49:51.777Z,2.90
2023-06-25T15:51:53.378Z,3.08
2023-06-25T15:53:55.145Z,3.13
2023-06-25T15:55:57.027Z,3.00
2023-06-25T15:58:00.374Z,2.95
2023-06-25T16:00:02.060Z,3.10
2023-06-25T16:02:03.792Z,3.50
2023-06-25T16:04:05.376Z,2.53
2023-06-25T16:06:06.950Z,2.97
2023-06-25T16:08:10.853Z,3.13
2023-06-25T16:10:12.768Z,3.00
2023-06-25T16:12:15.042Z,3.10
2023-06-25T16:14:16.618Z,3.03
2023-06-25T16:16:18.150Z,3.25
2023-06-25T16:18:19.778Z,3.38
2023-06-25T16:20:21.514Z,3.30
2023-06-25T16:22:23.200Z,3.20
2023-06-25T16:24:24.761Z,3.20
2023-06-25T16:26:26.354Z,3.35
2023-06-25T16:28:29.360Z,3.13
2023-06-25T16:30:30.941Z,3.60
2023-06-25T16:32:33.275Z,3.38
2023-06-25T16:34:36.005Z,3.15
2023-06-25T16:36:37.646Z,2.88
2023-06-25T16:38:39.184Z,3.20
2023-06-25T16:40:40.774Z,3.10
2023-06-25T16:42:42.405Z,3.15
2023-06-25T16:44:44.228Z,3.03
2023-06-25T16:46:45.901Z,3.25
2023-06-25T16:48:47.540Z,3.20
2023-06-25T16:50:49.189Z,3.22
2023-06-25T16:52:50.749Z,2.90
2023-06-25T16:54:52.370Z,3.10
2023-06-25T16:56:53.985Z,2.63
2023-06-25T16:58:55.594Z,3.08
2023-06-25T17:00:57.164Z,2.88
2023-06-25T17:02:58.845Z,2.80
2023-06-25T17:05:00.520Z,2.90
2023-06-25T17:07:03.596Z,3.10
2023-06-25T17:09:05.989Z,2.80
2023-06-25T17:11:07.875Z,2.97
2023-06-25T17:13:09.613Z,3.05
2023-06-25T17:15:11.249Z,3.03
2023-06-25T17:17:12.844Z,3.25
2023-06-25T17:19:14.539Z,2.95
2023-06-25T17:21:16.244Z,3.20
2023-06-25T17:23:19.403Z,3.10
2023-06-25T17:25:23.634Z,3.15
2023-06-25T17:27:25.179Z,3.25
2023-06-25T17:29:26.762Z,3.70
2023-06-25T17:31:28.331Z,2.92
2023-06-25T17:33:29.896Z,3.13
2023-06-25T17:35:31.576Z,3.00
2023-06-25T17:37:33.412Z,3.10
2023-06-25T17:39:35.339Z,3.15
2023-06-25T17:41:36.902Z,3.20
2023-06-25T17:43:38.484Z,3.10
2023-06-25T17:45:40.296Z,2.97
2023-06-25T17:47:44.882Z,3.60
2023-06-25T17:49:46.482Z,3.45
2023-06-25T17:51:48.589Z,3.13
2023-06-25T17:53:50.249Z,3.33
2023-06-25T17:55:51.864Z,3.03
2023-06-25T17:57:53.485Z,3.00
2023-06-25T17:59:55.080Z,3.10
2023-06-25T18:01:56.705Z,3.13
2023-06-25T18:03:58.314Z,3.10
2023-06-25T18:06:00.600Z,3.03
2023-06-25T18:08:02.310Z,3.03
2023-06-25T18:10:04.174Z,3.30
2023-06-25T18:12:05.933Z,3.20
2023-06-25T18:14:07.459Z,3.67
2023-06-25T18:16:09.121Z,3.50
2023-06-25T18:18:12.286Z,3.30
2023-06-25T18:20:13.990Z,3.90
2023-06-25T18:22:15.577Z,4.20
2023-06-25T18:24:17.326Z,3.42
2023-06-25T18:26:18.903Z,3.70
2023-06-25T18:28:20.442Z,3.53
2023-06-25T18:30:22.089Z,3.22
2023-06-25T18:32:23.690Z,3.30
2023-06-25T18:34:25.285Z,3.40
2023-06-25T18:36:27.143Z,3.45
2023-06-25T18:38:28.985Z,4.00
2023-06-25T18:40:30.608Z,11.35
2023-06-25T18:42:32.338Z,8.55
2023-06-25T18:44:33.915Z,5.90
2023-06-25T18:46:37.213Z,5.68
2023-06-25T18:48:38.877Z,5.03
2023-06-25T18:50:40.912Z,5.40
2023-06-25T18:52:42.553Z,6.20
2023-06-25T18:54:45.356Z,4.35
2023-06-25T18:56:46.988Z,3.95
2023-06-25T18:58:48.568Z,3.97
2023-06-25T19:00:50.126Z,3.47
2023-06-25T19:02:51.839Z,3.42
2023-06-25T19:04:53.432Z,3.53
2023-06-25T19:06:55.025Z,3.50
2023-06-25T19:08:57.068Z,3.85
2023-06-25T19:10:58.777Z,3.33
2023-06-25T19:13:00.856Z,3.72
2023-06-25T19:15:02.481Z,3.65
2023-06-25T19:17:06.711Z,3.90
2023-06-25T19:19:09.407Z,3.92
2023-06-25T19:21:11.853Z,4.30
2023-06-25T19:23:27.814Z,3.95
2023-06-25T19:25:30.954Z,3.53
2023-06-25T19:27:32.587Z,3.60
2023-06-25T19:29:34.272Z,3.83
2023-06-25T19:31:35.825Z,3.90
2023-06-25T19:33:37.366Z,4.03
2023-06-25T19:35:39.001Z,3.90
2023-06-25T19:37:40.684Z,3.70
2023-06-25T19:39:42.397Z,3.95
2023-06-25T19:41:44.003Z,3.92
2023-06-25T19:43:45.667Z,4.18
2023-06-25T19:45:50.436Z,4.70
2023-06-25T19:47:52.215Z,4.10
2023-06-25T19:49:54.180Z,3.83
2023-06-25T19:51:55.754Z,4.40
2023-06-25T19:54:00.648Z,4.07
2023-06-25T19:56:06.195Z,4.07
2023-06-25T19:58:18.865Z,4.13
2023-06-25T20:00:20.581Z,4.15
2023-06-25T20:02:22.568Z,4.40
2023-06-25T20:04:24.311Z,3.92
2023-06-25T20:06:25.929Z,4.00
2023-06-25T20:08:28.108Z,4.03
2023-06-25T20:10:37.845Z,4.13
2023-06-25T20:12:44.564Z,4.70
2023-06-25T20:14:46.202Z,4.72
2023-06-25T20:16:48.173Z,4.57
2023-06-25T20:18:49.736Z,4.55
2023-06-25T20:20:51.314Z,4.75
2023-06-25T20:22:52.992Z,4.20
2023-06-25T20:24:54.623Z,4.28
2023-06-25T20:26:56.173Z,4.05
2023-06-25T20:28:57.826Z,4.95
2023-06-25T20:30:59.428Z,4.43
2023-06-25T20:33:03.099Z,4.35
2023-06-25T20:35:04.908Z,4.53
2023-06-25T20:37:06.567Z,4.00
2023-06-25T20:39:08.155Z,5.57
2023-06-25T20:41:27.011Z,4.55
2023-06-25T20:43:31.836Z,4.82
2023-06-25T20:45:33.481Z,4.85
2023-06-25T20:47:40.112Z,4.38
2023-06-25T20:49:42.730Z,4.55
2023-06-25T20:51:44.308Z,4.22
